sensor_id;sensor_type;location;lat;lon;timestamp;pressure;altitude;pressure_sealevel;temperature;humidity
49541;BME280;35432;43.566;1.398;2023-02-28T00:01:21;100362.03;;;2.53;nan
49541;BME280;35432;43.566;1.398;2023-02-28T00:03:47;100362.94;;;2.55;nan
49541;BME280;35432;43.566;1.398;2023-02-28T00:06:12;100366.47;;;2.57;nan
49541;BME280;35432;43.566;1.398;2023-02-28T00:08:38;100365.59;;;2.56;nan
49541;BME280;35432;43.566;1.398;2023-02-28T00:11:09;100362.94;;;2.55;nan
49541;BME280;35432;43.566;1.398;2023-02-28T00:13:37;100366.38;;;2.54;nan
49541;BME280;35432;43.566;1.398;2023-02-28T00:16:05;100370.59;;;2.50;nan
49541;BME280;35432;43.566;1.398;2023-02-28T00:18:31;100386.09;;;2.47;nan
49541;BME280;35432;43.566;1.398;2023-02-28T00:20:57;100383.31;;;2.41;nan
49541;BME280;35432;43.566;1.398;2023-02-28T00:23:23;100382.22;;;2.33;nan
49541;BME280;35432;43.566;1.398;2023-02-28T00:25:49;100376.81;;;2.26;nan
49541;BME280;35432;43.566;1.398;2023-02-28T00:28:15;100377.28;;;2.14;nan
49541;BME280;35432;43.566;1.398;2023-02-28T00:30:40;100371.88;;;2.07;nan
49541;BME280;35432;43.566;1.398;2023-02-28T00:33:06;100378.50;;;1.98;nan
49541;BME280;35432;43.566;1.398;2023-02-28T00:35:31;100382.59;;;1.90;nan
49541;BME280;35432;43.566;1.398;2023-02-28T00:37:57;100372.84;;;1.83;nan
49541;BME280;35432;43.566;1.398;2023-02-28T00:40:22;100376.13;;;1.79;nan
49541;BME280;35432;43.566;1.398;2023-02-28T00:42:47;100376.09;;;1.77;nan
49541;BME280;35432;43.566;1.398;2023-02-28T00:45:13;100372.56;;;1.75;nan
49541;BME280;35432;43.566;1.398;2023-02-28T00:48:13;100376.78;;;1.71;nan
49541;BME280;35432;43.566;1.398;2023-02-28T00:50:38;100381.97;;;1.71;nan
49541;BME280;35432;43.566;1.398;2023-02-28T00:53:03;100388.91;;;1.72;nan
49541;BME280;35432;43.566;1.398;2023-02-28T00:55:29;100392.44;;;1.75;nan
49541;BME280;35432;43.566;1.398;2023-02-28T00:57:54;100385.59;;;1.77;nan
49541;BME280;35432;43.566;1.398;2023-02-28T01:00:21;100397.84;;;1.81;nan
49541;BME280;35432;43.566;1.398;2023-02-28T01:02:46;100403.25;;;1.87;nan
49541;BME280;35432;43.566;1.398;2023-02-28T01:05:12;100401.69;;;1.92;nan
49541;BME280;35432;43.566;1.398;2023-02-28T01:07:37;100404.47;;;1.97;nan
49541;BME280;35432;43.566;1.398;2023-02-28T01:10:03;100402.06;;;2.03;nan
49541;BME280;35432;43.566;1.398;2023-02-28T01:12:31;100399.63;;;2.08;nan
49541;BME280;35432;43.566;1.398;2023-02-28T01:14:57;100403.16;;;2.10;nan
49541;BME280;35432;43.566;1.398;2023-02-28T01:17:23;100402.44;;;2.15;nan
49541;BME280;35432;43.566;1.398;2023-02-28T01:19:48;100408.72;;;2.22;nan
49541;BME280;35432;43.566;1.398;2023-02-28T01:22:14;100409.75;;;2.27;nan
49541;BME280;35432;43.566;1.398;2023-02-28T01:24:39;100413.41;;;2.33;nan
49541;BME280;35432;43.566;1.398;2023-02-28T01:27:04;100417.03;;;2.38;nan
49541;BME280;35432;43.566;1.398;2023-02-28T01:29:30;100414.50;;;2.41;nan
49541;BME280;35432;43.566;1.398;2023-02-28T01:31:55;100418.13;;;2.46;nan
49541;BME280;35432;43.566;1.398;2023-02-28T01:34:22;100423.34;;;2.46;nan
49541;BME280;35432;43.566;1.398;2023-02-28T01:36:47;100420.81;;;2.49;nan
49541;BME280;35432;43.566;1.398;2023-02-28T01:39:13;100422.59;;;2.50;nan
49541;BME280;35432;43.566;1.398;2023-02-28T01:41:39;100419.16;;;2.51;nan
49541;BME280;35432;43.566;1.398;2023-02-28T01:47:11;100430.44;;;2.52;nan
49541;BME280;35432;43.566;1.398;2023-02-28T01:49:37;100425.31;;;2.53;nan
49541;BME280;35432;43.566;1.398;2023-02-28T01:52:03;100426.13;;;2.52;nan
49541;BME280;35432;43.566;1.398;2023-02-28T01:54:31;100429.66;;;2.54;nan
49541;BME280;35432;43.566;1.398;2023-02-28T01:57:01;100430.59;;;2.56;nan
49541;BME280;35432;43.566;1.398;2023-02-28T01:59:43;100437.47;;;2.54;nan
49541;BME280;35432;43.566;1.398;2023-02-28T02:02:19;100436.63;;;2.55;nan
49541;BME280;35432;43.566;1.398;2023-02-28T02:04:58;100436.72;;;2.58;nan
49541;BME280;35432;43.566;1.398;2023-02-28T02:07:29;100433.38;;;2.63;nan
49541;BME280;35432;43.566;1.398;2023-02-28T02:10:05;100436.84;;;2.63;nan
49541;BME280;35432;43.566;1.398;2023-02-28T02:15:49;100437.94;;;2.70;nan
49541;BME280;35432;43.566;1.398;2023-02-28T02:19:11;100441.44;;;2.70;nan
49541;BME280;35432;43.566;1.398;2023-02-28T02:26:58;100444.91;;;2.71;nan
49541;BME280;35432;43.566;1.398;2023-02-28T02:37:46;100436.41;;;2.77;nan
49541;BME280;35432;43.566;1.398;2023-02-28T02:40:18;100439.06;;;2.78;nan
49541;BME280;35432;43.566;1.398;2023-02-28T02:43:01;100436.50;;;2.80;nan
49541;BME280;35432;43.566;1.398;2023-02-28T02:45:38;100441.75;;;2.81;nan
49541;BME280;35432;43.566;1.398;2023-02-28T02:48:08;100437.41;;;2.80;nan
49541;BME280;35432;43.566;1.398;2023-02-28T02:50:42;100435.72;;;2.82;nan
49541;BME280;35432;43.566;1.398;2023-02-28T02:53:09;100431.34;;;2.81;nan
49541;BME280;35432;43.566;1.398;2023-02-28T02:55:40;100420.13;;;2.82;nan
49541;BME280;35432;43.566;1.398;2023-02-28T02:58:14;100417.38;;;2.78;nan
49541;BME280;35432;43.566;1.398;2023-02-28T03:00:43;100422.66;;;2.81;nan
49541;BME280;35432;43.566;1.398;2023-02-28T03:03:12;100426.06;;;2.78;nan
49541;BME280;35432;43.566;1.398;2023-02-28T03:05:46;100421.78;;;2.80;nan
49541;BME280;35432;43.566;1.398;2023-02-28T03:08:12;100421.88;;;2.83;nan
49541;BME280;35432;43.566;1.398;2023-02-28T03:10:40;100426.25;;;2.86;nan
49541;BME280;35432;43.566;1.398;2023-02-28T03:27:04;100415.59;;;2.77;nan
49541;BME280;35432;43.566;1.398;2023-02-28T03:29:33;100421.56;;;2.74;nan
49541;BME280;35432;43.566;1.398;2023-02-28T03:32:21;100426.88;;;2.77;nan
49541;BME280;35432;43.566;1.398;2023-02-28T03:35:05;100430.31;;;2.76;nan
49541;BME280;35432;43.566;1.398;2023-02-28T03:37:35;100426.00;;;2.77;nan
49541;BME280;35432;43.566;1.398;2023-02-28T03:40:07;100420.75;;;2.75;nan
49541;BME280;35432;43.566;1.398;2023-02-28T03:42:36;100421.56;;;2.74;nan
49541;BME280;35432;43.566;1.398;2023-02-28T03:50:39;100430.97;;;2.69;nan
49541;BME280;35432;43.566;1.398;2023-02-28T03:53:15;100422.22;;;2.65;nan
49541;BME280;35432;43.566;1.398;2023-02-28T03:55:48;100416.88;;;2.62;nan
49541;BME280;35432;43.566;1.398;2023-02-28T04:00:45;100432.38;;;2.57;nan
49541;BME280;35432;43.566;1.398;2023-02-28T04:03:11;100431.44;;;2.55;nan
49541;BME280;35432;43.566;1.398;2023-02-28T04:05:56;100440.91;;;2.53;nan
49541;BME280;35432;43.566;1.398;2023-02-28T04:08:22;100430.53;;;2.55;nan
49541;BME280;35432;43.566;1.398;2023-02-28T04:10:55;100428.69;;;2.51;nan
49541;BME280;35432;43.566;1.398;2023-02-28T04:13:22;100427.78;;;2.50;nan
49541;BME280;35432;43.566;1.398;2023-02-28T04:15:48;100434.63;;;2.47;nan
49541;BME280;35432;43.566;1.398;2023-02-28T04:18:13;100444.00;;;2.41;nan
49541;BME280;35432;43.566;1.398;2023-02-28T04:20:39;100440.41;;;2.38;nan
49541;BME280;35432;43.566;1.398;2023-02-28T04:23:04;100438.66;;;2.37;nan
49541;BME280;35432;43.566;1.398;2023-02-28T04:25:29;100438.59;;;2.35;nan
49541;BME280;35432;43.566;1.398;2023-02-28T04:27:55;100432.53;;;2.35;nan
49541;BME280;35432;43.566;1.398;2023-02-28T04:30:20;100435.03;;;2.32;nan
49541;BME280;35432;43.566;1.398;2023-02-28T04:32:46;100436.63;;;2.28;nan
49541;BME280;35432;43.566;1.398;2023-02-28T04:35:11;100440.56;;;2.17;nan
49541;BME280;35432;43.566;1.398;2023-02-28T04:37:37;100438.72;;;2.12;nan
49541;BME280;35432;43.566;1.398;2023-02-28T04:40:03;100443.72;;;2.06;nan
49541;BME280;35432;43.566;1.398;2023-02-28T04:42:29;100451.31;;;2.00;nan
49541;BME280;35432;43.566;1.398;2023-02-28T04:45:03;100458.94;;;1.95;nan
49541;BME280;35432;43.566;1.398;2023-02-28T04:47:29;100455.31;;;1.90;nan
49541;BME280;35432;43.566;1.398;2023-02-28T04:49:54;100455.09;;;1.84;nan
49541;BME280;35432;43.566;1.398;2023-02-28T04:52:20;100451.34;;;1.76;nan
49541;BME280;35432;43.566;1.398;2023-02-28T04:54:45;100447.69;;;1.70;nan
49541;BME280;35432;43.566;1.398;2023-02-28T04:57:10;100450.09;;;1.64;nan
49541;BME280;35432;43.566;1.398;2023-02-28T04:59:36;100454.09;;;1.56;nan
49541;BME280;35432;43.566;1.398;2023-02-28T05:02:01;100453.91;;;1.50;nan
49541;BME280;35432;43.566;1.398;2023-02-28T05:04:34;100449.31;;;1.42;nan
49541;BME280;35432;43.566;1.398;2023-02-28T05:07:01;100456.88;;;1.36;nan
49541;BME280;35432;43.566;1.398;2023-02-28T05:09:27;100462.78;;;1.32;nan
49541;BME280;35432;43.566;1.398;2023-02-28T05:11:53;100457.44;;;1.27;nan
49541;BME280;35432;43.566;1.398;2023-02-28T05:14:19;100458.09;;;1.22;nan
49541;BME280;35432;43.566;1.398;2023-02-28T05:16:44;100460.50;;;1.17;nan
49541;BME280;35432;43.566;1.398;2023-02-28T05:19:10;100456.84;;;1.12;nan
49541;BME280;35432;43.566;1.398;2023-02-28T05:21:57;100457.50;;;1.06;nan
49541;BME280;35432;43.566;1.398;2023-02-28T05:24:22;100456.41;;;0.99;nan
49541;BME280;35432;43.566;1.398;2023-02-28T05:26:52;100467.41;;;0.94;nan
49541;BME280;35432;43.566;1.398;2023-02-28T05:29:18;100450.69;;;0.85;nan
49541;BME280;35432;43.566;1.398;2023-02-28T05:31:43;100451.25;;;0.78;nan
49541;BME280;35432;43.566;1.398;2023-02-28T05:34:09;100458.81;;;0.72;nan
49541;BME280;35432;43.566;1.398;2023-02-28T05:36:37;100462.94;;;0.67;nan
49541;BME280;35432;43.566;1.398;2023-02-28T05:39:03;100460.13;;;0.61;nan
49541;BME280;35432;43.566;1.398;2023-02-28T05:41:29;100465.03;;;0.54;nan
49541;BME280;35432;43.566;1.398;2023-02-28T05:43:55;100467.50;;;0.51;nan
49541;BME280;35432;43.566;1.398;2023-02-28T05:46:22;100470.78;;;0.47;nan
49541;BME280;35432;43.566;1.398;2023-02-28T05:48:48;100476.59;;;0.41;nan
49541;BME280;35432;43.566;1.398;2023-02-28T05:51:13;100475.66;;;0.39;nan
49541;BME280;35432;43.566;1.398;2023-02-28T05:53:39;100475.47;;;0.35;nan
49541;BME280;35432;43.566;1.398;2023-02-28T05:56:04;100477.94;;;0.32;nan
49541;BME280;35432;43.566;1.398;2023-02-28T05:58:30;100477.00;;;0.30;nan
49541;BME280;35432;43.566;1.398;2023-02-28T06:00:59;100478.63;;;0.27;nan
49541;BME280;35432;43.566;1.398;2023-02-28T06:03:26;100482.03;;;0.26;nan
49541;BME280;35432;43.566;1.398;2023-02-28T06:05:51;100492.41;;;0.26;nan
49541;BME280;35432;43.566;1.398;2023-02-28T06:08:17;100492.28;;;0.23;nan
49541;BME280;35432;43.566;1.398;2023-02-28T06:10:43;100486.97;;;0.20;nan
49541;BME280;35432;43.566;1.398;2023-02-28T06:13:09;100485.13;;;0.18;nan
49541;BME280;35432;43.566;1.398;2023-02-28T06:15:34;100480.66;;;0.13;nan
49541;BME280;35432;43.566;1.398;2023-02-28T06:18:00;100490.88;;;0.10;nan
49541;BME280;35432;43.566;1.398;2023-02-28T06:20:26;100492.53;;;0.08;nan
49541;BME280;35432;43.566;1.398;2023-02-28T06:22:55;100487.22;;;0.05;nan
49541;BME280;35432;43.566;1.398;2023-02-28T06:25:23;100489.75;;;0.04;nan
49541;BME280;35432;43.566;1.398;2023-02-28T06:27:49;100490.50;;;0.01;nan
49541;BME280;35432;43.566;1.398;2023-02-28T06:30:14;100491.25;;;-0.02;nan
49541;BME280;35432;43.566;1.398;2023-02-28T06:32:40;100488.59;;;-0.03;nan
49541;BME280;35432;43.566;1.398;2023-02-28T06:35:05;100492.81;;;-0.05;nan
49541;BME280;35432;43.566;1.398;2023-02-28T06:37:32;100494.66;;;-0.03;nan
49541;BME280;35432;43.566;1.398;2023-02-28T06:39:57;100500.09;;;0.04;nan
49541;BME280;35432;43.566;1.398;2023-02-28T06:42:23;100498.72;;;0.12;nan
49541;BME280;35432;43.566;1.398;2023-02-28T06:44:57;100496.66;;;0.24;nan
49541;BME280;35432;43.566;1.398;2023-02-28T06:47:24;100497.91;;;0.34;nan
49541;BME280;35432;43.566;1.398;2023-02-28T06:49:50;100499.19;;;0.44;nan
49541;BME280;35432;43.566;1.398;2023-02-28T06:52:15;100503.03;;;0.54;nan
49541;BME280;35432;43.566;1.398;2023-02-28T06:54:41;100498.28;;;0.65;nan
49541;BME280;35432;43.566;1.398;2023-02-28T06:57:06;100490.00;;;0.74;nan
49541;BME280;35432;43.566;1.398;2023-02-28T06:59:32;100494.63;;;0.82;nan
49541;BME280;35432;43.566;1.398;2023-02-28T07:01:57;100498.41;;;0.91;nan
49541;BME280;35432;43.566;1.398;2023-02-28T07:04:23;100504.78;;;0.99;nan
49541;BME280;35432;43.566;1.398;2023-02-28T07:06:48;100501.59;;;1.06;nan
49541;BME280;35432;43.566;1.398;2023-02-28T07:09:14;100506.31;;;1.17;nan
49541;BME280;35432;43.566;1.398;2023-02-28T07:11:40;100508.41;;;1.27;nan
49541;BME280;35432;43.566;1.398;2023-02-28T07:14:06;100508.00;;;1.39;nan
49541;BME280;35432;43.566;1.398;2023-02-28T07:16:32;100509.34;;;1.52;nan
49541;BME280;35432;43.566;1.398;2023-02-28T07:18:58;100503.78;;;1.65;nan
49541;BME280;35432;43.566;1.398;2023-02-28T07:21:23;100505.94;;;1.77;nan
49541;BME280;35432;43.566;1.398;2023-02-28T07:23:49;100509.00;;;1.91;nan
49541;BME280;35432;43.566;1.398;2023-02-28T07:26:17;100512.25;;;2.10;nan
49541;BME280;35432;43.566;1.398;2023-02-28T07:28:45;100507.78;;;2.32;nan
49541;BME280;35432;43.566;1.398;2023-02-28T07:31:11;100519.50;;;2.46;nan
49541;BME280;35432;43.566;1.398;2023-02-28T07:33:39;100514.56;;;2.54;nan
49541;BME280;35432;43.566;1.398;2023-02-28T07:36:10;100519.00;;;2.56;nan
49541;BME280;35432;43.566;1.398;2023-02-28T07:38:41;100524.31;;;2.61;nan
49541;BME280;35432;43.566;1.398;2023-02-28T07:41:06;100524.63;;;2.70;nan
49541;BME280;35432;43.566;1.398;2023-02-28T07:43:33;100527.03;;;3.21;nan
49541;BME280;35432;43.566;1.398;2023-02-28T07:46:07;100517.44;;;4.13;nan
49541;BME280;35432;43.566;1.398;2023-02-28T07:48:33;100517.19;;;5.51;nan
49541;BME280;35432;43.566;1.398;2023-02-28T07:50:59;100506.22;;;6.67;nan
49541;BME280;35432;43.566;1.398;2023-02-28T07:53:26;100509.38;;;7.03;nan
49541;BME280;35432;43.566;1.398;2023-02-28T07:55:55;100503.81;;;6.81;nan
49541;BME280;35432;43.566;1.398;2023-02-28T07:58:21;100504.03;;;6.38;nan
49541;BME280;35432;43.566;1.398;2023-02-28T08:00:47;100505.06;;;6.00;nan
49541;BME280;35432;43.566;1.398;2023-02-28T08:03:12;100496.66;;;5.69;nan
49541;BME280;35432;43.566;1.398;2023-02-28T08:05:41;100499.22;;;6.12;nan
49541;BME280;35432;43.566;1.398;2023-02-28T08:08:07;100501.25;;;7.47;nan
49541;BME280;35432;43.566;1.398;2023-02-28T08:10:33;100502.00;;;9.40;nan
49541;BME280;35432;43.566;1.398;2023-02-28T08:12:58;100503.94;;;11.33;nan
49541;BME280;35432;43.566;1.398;2023-02-28T08:15:23;100493.88;;;13.16;nan
49541;BME280;35432;43.566;1.398;2023-02-28T08:17:49;100492.28;;;14.89;nan
49541;BME280;35432;43.566;1.398;2023-02-28T08:20:14;100499.03;;;16.33;nan
49541;BME280;35432;43.566;1.398;2023-02-28T08:22:40;100498.16;;;17.35;nan
49541;BME280;35432;43.566;1.398;2023-02-28T08:25:07;100501.47;;;18.34;nan
49541;BME280;35432;43.566;1.398;2023-02-28T08:27:32;100498.50;;;18.96;nan
49541;BME280;35432;43.566;1.398;2023-02-28T08:29:58;100491.22;;;19.50;nan
49541;BME280;35432;43.566;1.398;2023-02-28T08:32:23;100487.56;;;19.76;nan
49541;BME280;35432;43.566;1.398;2023-02-28T08:34:49;100487.41;;;20.03;nan
49541;BME280;35432;43.566;1.398;2023-02-28T08:37:14;100488.09;;;20.08;nan
49541;BME280;35432;43.566;1.398;2023-02-28T08:39:39;100492.97;;;20.21;nan
49541;BME280;35432;43.566;1.398;2023-02-28T08:42:05;100487.94;;;20.56;nan
49541;BME280;35432;43.566;1.398;2023-02-28T08:44:30;100491.50;;;21.19;nan
49541;BME280;35432;43.566;1.398;2023-02-28T08:46:56;100491.03;;;21.89;nan
49541;BME280;35432;43.566;1.398;2023-02-28T08:49:21;100495.47;;;21.90;nan
49541;BME280;35432;43.566;1.398;2023-02-28T08:51:47;100503.59;;;21.48;nan
49541;BME280;35432;43.566;1.398;2023-02-28T08:54:12;100508.75;;;20.27;nan
49541;BME280;35432;43.566;1.398;2023-02-28T08:56:38;100509.69;;;19.07;nan
49541;BME280;35432;43.566;1.398;2023-02-28T08:59:04;100509.19;;;18.69;nan
49541;BME280;35432;43.566;1.398;2023-02-28T09:01:30;100504.50;;;18.75;nan
49541;BME280;35432;43.566;1.398;2023-02-28T09:03:57;100508.81;;;17.35;nan
49541;BME280;35432;43.566;1.398;2023-02-28T09:06:25;100514.84;;;16.38;nan
49541;BME280;35432;43.566;1.398;2023-02-28T09:08:51;100519.69;;;15.37;nan
49541;BME280;35432;43.566;1.398;2023-02-28T09:11:17;100525.69;;;15.00;nan
49541;BME280;35432;43.566;1.398;2023-02-28T09:13:44;100520.31;;;15.03;nan
49541;BME280;35432;43.566;1.398;2023-02-28T09:16:12;100507.88;;;16.34;nan
49541;BME280;35432;43.566;1.398;2023-02-28T09:18:39;100502.81;;;17.89;nan
49541;BME280;35432;43.566;1.398;2023-02-28T09:21:06;100507.38;;;18.96;nan
49541;BME280;35432;43.566;1.398;2023-02-28T09:23:32;100499.97;;;20.01;nan
49541;BME280;35432;43.566;1.398;2023-02-28T09:25:58;100507.06;;;20.90;nan
49541;BME280;35432;43.566;1.398;2023-02-28T09:28:23;100498.91;;;21.33;nan
49541;BME280;35432;43.566;1.398;2023-02-28T09:30:51;100505.31;;;22.08;nan
49541;BME280;35432;43.566;1.398;2023-02-28T09:33:17;100512.84;;;22.91;nan
49541;BME280;35432;43.566;1.398;2023-02-28T09:35:46;100516.91;;;23.68;nan
49541;BME280;35432;43.566;1.398;2023-02-28T09:38:11;100519.28;;;24.38;nan
49541;BME280;35432;43.566;1.398;2023-02-28T09:40:42;100522.44;;;24.77;nan
49541;BME280;35432;43.566;1.398;2023-02-28T09:43:14;100526.09;;;24.76;nan
49541;BME280;35432;43.566;1.398;2023-02-28T09:45:42;100521.97;;;24.22;nan
49541;BME280;35432;43.566;1.398;2023-02-28T09:48:23;100530.81;;;23.25;nan
49541;BME280;35432;43.566;1.398;2023-02-28T09:50:51;100532.91;;;22.84;nan
49541;BME280;35432;43.566;1.398;2023-02-28T09:53:26;100531.47;;;21.84;nan
49541;BME280;35432;43.566;1.398;2023-02-28T09:55:56;100529.44;;;20.67;nan
49541;BME280;35432;43.566;1.398;2023-02-28T10:01:34;100537.97;;;17.72;nan
49541;BME280;35432;43.566;1.398;2023-02-28T10:04:12;100539.81;;;17.05;nan
49541;BME280;35432;43.566;1.398;2023-02-28T10:06:46;100541.44;;;16.38;nan
49541;BME280;35432;43.566;1.398;2023-02-28T10:09:18;100540.34;;;15.65;nan
49541;BME280;35432;43.566;1.398;2023-02-28T10:11:50;100535.50;;;14.96;nan
49541;BME280;35432;43.566;1.398;2023-02-28T10:14:22;100542.09;;;14.12;nan
49541;BME280;35432;43.566;1.398;2023-02-28T10:17:11;100539.41;;;13.45;nan
49541;BME280;35432;43.566;1.398;2023-02-28T10:19:59;100540.13;;;13.58;nan
49541;BME280;35432;43.566;1.398;2023-02-28T10:22:38;100539.22;;;13.60;nan
49541;BME280;35432;43.566;1.398;2023-02-28T10:25:29;100552.50;;;13.57;nan
49541;BME280;35432;43.566;1.398;2023-02-28T10:28:21;100540.34;;;13.36;nan
49541;BME280;35432;43.566;1.398;2023-02-28T10:30:51;100551.44;;;12.83;nan
49541;BME280;35432;43.566;1.398;2023-02-28T10:35:47;100555.34;;;12.35;nan
49541;BME280;35432;43.566;1.398;2023-02-28T10:38:23;100551.00;;;12.28;nan
49541;BME280;35432;43.566;1.398;2023-02-28T10:40:49;100551.75;;;12.49;nan
49541;BME280;35432;43.566;1.398;2023-02-28T10:45:57;100559.41;;;12.82;nan
49541;BME280;35432;43.566;1.398;2023-02-28T10:48:33;100551.38;;;12.92;nan
49541;BME280;35432;43.566;1.398;2023-02-28T10:50:59;100555.69;;;13.01;nan
49541;BME280;35432;43.566;1.398;2023-02-28T10:53:33;100555.78;;;12.92;nan
49541;BME280;35432;43.566;1.398;2023-02-28T11:03:45;100552.03;;;12.01;nan
49541;BME280;35432;43.566;1.398;2023-02-28T11:06:19;100561.81;;;11.66;nan
49541;BME280;35432;43.566;1.398;2023-02-28T11:08:57;100561.88;;;11.49;nan
49541;BME280;35432;43.566;1.398;2023-02-28T11:11:26;100561.97;;;11.10;nan
49541;BME280;35432;43.566;1.398;2023-02-28T11:13:56;100561.97;;;10.73;nan
49541;BME280;35432;43.566;1.398;2023-02-28T11:16:34;100554.03;;;10.32;nan
49541;BME280;35432;43.566;1.398;2023-02-28T11:19:02;100563.66;;;10.23;nan
49541;BME280;35432;43.566;1.398;2023-02-28T11:21:31;100564.50;;;10.01;nan
49541;BME280;35432;43.566;1.398;2023-02-28T11:26:47;100561.91;;;10.18;nan
49541;BME280;35432;43.566;1.398;2023-02-28T11:29:23;100557.56;;;10.28;nan
49541;BME280;35432;43.566;1.398;2023-02-28T11:34:37;100561.13;;;10.83;nan
49541;BME280;35432;43.566;1.398;2023-02-28T11:37:04;100565.50;;;11.22;nan
49541;BME280;35432;43.566;1.398;2023-02-28T11:39:31;100548.66;;;11.63;nan
49541;BME280;35432;43.566;1.398;2023-02-28T11:56:06;100522.22;;;11.69;nan
49541;BME280;35432;43.566;1.398;2023-02-28T12:07:30;100518.50;;;12.20;nan
49541;BME280;35432;43.566;1.398;2023-02-28T12:23:33;100488.25;;;13.46;nan
49541;BME280;35432;43.566;1.398;2023-02-28T12:26:14;100480.34;;;13.44;nan
49541;BME280;35432;43.566;1.398;2023-02-28T12:28:46;100486.66;;;13.28;nan
49541;BME280;35432;43.566;1.398;2023-02-28T12:31:19;100480.13;;;12.82;nan
49541;BME280;35432;43.566;1.398;2023-02-28T12:34:14;100478.53;;;12.62;nan
49541;BME280;35432;43.566;1.398;2023-02-28T12:36:43;100489.28;;;12.40;nan
49541;BME280;35432;43.566;1.398;2023-02-28T12:39:31;100479.66;;;12.31;nan
49541;BME280;35432;43.566;1.398;2023-02-28T12:42:26;100483.22;;;12.26;nan
49541;BME280;35432;43.566;1.398;2023-02-28T12:44:57;100488.53;;;12.24;nan
49541;BME280;35432;43.566;1.398;2023-02-28T12:47:24;100486.84;;;12.14;nan
49541;BME280;35432;43.566;1.398;2023-02-28T12:50:06;100481.69;;;11.86;nan
49541;BME280;35432;43.566;1.398;2023-02-28T12:58:20;100475.00;;;11.07;nan
49541;BME280;35432;43.566;1.398;2023-02-28T13:06:43;100460.88;;;11.30;nan
49541;BME280;35432;43.566;1.398;2023-02-28T13:09:12;100452.09;;;11.28;nan
49541;BME280;35432;43.566;1.398;2023-02-28T13:11:41;100443.09;;;11.72;nan
49541;BME280;35432;43.566;1.398;2023-02-28T13:16:59;100440.47;;;11.66;nan
49541;BME280;35432;43.566;1.398;2023-02-28T13:19:27;100436.09;;;11.65;nan
49541;BME280;35432;43.566;1.398;2023-02-28T13:21:57;100434.41;;;11.55;nan
49541;BME280;35432;43.566;1.398;2023-02-28T13:24:40;100435.22;;;11.63;nan
49541;BME280;35432;43.566;1.398;2023-02-28T13:29:35;100458.22;;;11.31;nan
49541;BME280;35432;43.566;1.398;2023-02-28T13:47:43;100446.94;;;10.83;nan
49541;BME280;35432;43.566;1.398;2023-02-28T13:53:11;100439.06;;;10.80;nan
49541;BME280;35432;43.566;1.398;2023-02-28T13:58:50;100437.28;;;10.97;nan
49541;BME280;35432;43.566;1.398;2023-02-28T14:01:48;100432.91;;;10.88;nan
49541;BME280;35432;43.566;1.398;2023-02-28T14:07:09;100425.88;;;10.92;nan
49541;BME280;35432;43.566;1.398;2023-02-28T14:09:46;100431.16;;;10.81;nan
49541;BME280;35432;43.566;1.398;2023-02-28T14:17:57;100432.03;;;10.80;nan
49541;BME280;35432;43.566;1.398;2023-02-28T14:20:26;100442.56;;;10.91;nan
49541;BME280;35432;43.566;1.398;2023-02-28T14:28:28;100425.84;;;10.94;nan
49541;BME280;35432;43.566;1.398;2023-02-28T14:31:24;100432.88;;;11.01;nan
49541;BME280;35432;43.566;1.398;2023-02-28T14:36:39;100439.09;;;10.64;nan
49541;BME280;35432;43.566;1.398;2023-02-28T14:39:10;100436.44;;;10.22;nan
49541;BME280;35432;43.566;1.398;2023-02-28T14:41:38;100434.72;;;10.02;nan
49541;BME280;35432;43.566;1.398;2023-02-28T14:44:21;100425.91;;;9.88;nan
49541;BME280;35432;43.566;1.398;2023-02-28T14:46:52;100430.22;;;9.62;nan
49541;BME280;35432;43.566;1.398;2023-02-28T14:49:20;100425.88;;;9.60;nan
49541;BME280;35432;43.566;1.398;2023-02-28T14:51:48;100431.97;;;9.48;nan
49541;BME280;35432;43.566;1.398;2023-02-28T14:54:16;100435.44;;;9.39;nan
49541;BME280;35432;43.566;1.398;2023-02-28T14:56:48;100435.38;;;9.25;nan
49541;BME280;35432;43.566;1.398;2023-02-28T14:59:29;100438.81;;;9.09;nan
49541;BME280;35432;43.566;1.398;2023-02-28T15:04:39;100435.13;;;8.77;nan
49541;BME280;35432;43.566;1.398;2023-02-28T15:07:16;100435.13;;;8.75;nan
49541;BME280;35432;43.566;1.398;2023-02-28T15:09:42;100439.44;;;8.66;nan
49541;BME280;35432;43.566;1.398;2023-02-28T15:12:07;100442.94;;;8.61;nan
49541;BME280;35432;43.566;1.398;2023-02-28T15:14:43;100441.00;;;8.45;nan
49541;BME280;35432;43.566;1.398;2023-02-28T15:17:22;100431.34;;;8.42;nan
49541;BME280;35432;43.566;1.398;2023-02-28T15:19:51;100434.00;;;8.44;nan
49541;BME280;35432;43.566;1.398;2023-02-28T15:22:23;100438.34;;;8.39;nan
49541;BME280;35432;43.566;1.398;2023-02-28T15:24:54;100430.44;;;8.32;nan
49541;BME280;35432;43.566;1.398;2023-02-28T15:27:31;100440.84;;;8.23;nan
49541;BME280;35432;43.566;1.398;2023-02-28T15:30:24;100439.06;;;8.19;nan
49541;BME280;35432;43.566;1.398;2023-02-28T15:33:28;100438.94;;;8.05;nan
49541;BME280;35432;43.566;1.398;2023-02-28T15:36:25;100432.66;;;7.86;nan
49541;BME280;35432;43.566;1.398;2023-02-28T15:38:53;100435.31;;;7.89;nan
49541;BME280;35432;43.566;1.398;2023-02-28T15:41:35;100434.38;;;7.84;nan
49541;BME280;35432;43.566;1.398;2023-02-28T15:44:30;100431.72;;;7.81;nan
49541;BME280;35432;43.566;1.398;2023-02-28T15:47:02;100436.88;;;7.71;nan
49541;BME280;35432;43.566;1.398;2023-02-28T15:49:29;100431.66;;;7.73;nan
49541;BME280;35432;43.566;1.398;2023-02-28T15:51:59;100433.41;;;7.74;nan
49541;BME280;35432;43.566;1.398;2023-02-28T15:54:32;100428.97;;;7.68;nan
49541;BME280;35432;43.566;1.398;2023-02-28T15:57:13;100434.19;;;7.65;nan
49541;BME280;35432;43.566;1.398;2023-02-28T15:59:48;100435.06;;;7.64;nan
49541;BME280;35432;43.566;1.398;2023-02-28T16:02:30;100438.44;;;7.55;nan
49541;BME280;35432;43.566;1.398;2023-02-28T16:07:34;100440.19;;;7.55;nan
49541;BME280;35432;43.566;1.398;2023-02-28T16:10:00;100447.06;;;7.43;nan
49541;BME280;35432;43.566;1.398;2023-02-28T16:12:31;100451.28;;;7.33;nan